Mohawk, NY

12:04 AM EDT on October 01, 2014 (GMT -0400)
Burt Rd | Change Station
CLOSE
Current Station
Personal Weather Station
Location: Little Falls, NY
Elevation: 758 ft
Nearby Weather Stations

Elev 758 ft 43.05 °N, 74.89 °W | Updated 4 minutes ago

Partly Cloudy
Partly Cloudy
56.1 °F
Feels Like 56.1 °F
N
0.0
Wind Variable Wind from East
Gusts 0.0 mph

Today
High -- | Low -- °F
--% Chance of Precip.
Yesterday
High -- | Low -- °F
Precip. -- in
6:57 AM 6:41 PM
Waxing Crescent, 43% visible
Pressure 30.00 in
Visibility 10.0 miles
Clouds Clear
Dew Point 54 °F
Humidity 94%
Rainfall 0.00 in
Snow Depth Not available.
UV 0 out of 12
Pollen 2.30 out of 12
Ozone Good
PM2.5 Moderate
Flu Activity Not available.
METAR KRME 010353Z AUTO 09005KT 10SM CLR 14/13 A3000 RMK AO2 SLP157 T01440133

More Conditions Fewer Conditions

Pressure 30.00 in
Visibility 10.0 miles
Clouds Clear
Dew Point 54 °F
Humidity 94%
Rainfall 0.00 in
Snow Depth Not available.
UV 0 out of 12
Pollen 2.30 out of 12
Ozone Good
PM2.5 Moderate
Flu Activity Not available.
METAR KRME 010353Z AUTO 09005KT 10SM CLR 14/13 A3000 RMK AO2 SLP157 T01440133

More Conditions Fewer Conditions

10-Day Weather Forecast

Almanac

Astronomy

Oct. 01, 2014 Rise Set
Actual Time 6:57 AM EDT 6:41 PM EDT
Civil Twilight 6:28 AM EDT 7:09 PM EDT
Nautical Twilight 5:55 AM EDT 7:42 PM EDT
Astronomical Twilight 5:22 AM EDT 8:15 PM EDT
Moon 2:02 PM EDT No Moon Set
Length of Visible Light 12h 40m
Length of Day
11h 44m
Tomorrow will be 2m 53s shorter.
Waxing Crescent, 43% of the Moon is Illuminated
Today
Waxing Crescent
Oct 1
First Quarter
Oct 8
Full
Oct 15
Last Quarter
Oct 23
New

Yesterday's Extremes

State Highs State Lows

Community

WunderPhotos

Upload Photos

1,757,840 photos uploaded!

Nearby

Air Quality

  Air Quality AQ Index Pollutant
Yesterday Good
OZONE
Yesterday Good
PM2.5
Current Moderate
PM2.5
Current Good
OZONE
Tuesday Moderate
PM2.5
Tuesday Good
OZONE
Wednesday Good
PM2.5

Snow Depth

Station Depth Elevation
No new snow has been reported.

Earthquake Activity

City Distance Mag. Time & Date
No recent earthquake activity has been reported nearby.
Minimum magnitude displayed is 2.5.

Coastal Water Temperatures

Place Temperature
No Stations Reporting

Nearby Weather Stations